Quetta, Pakistan
Current Conditions -  °F | °C
As of 6:55 PM on Tuesday 21 Oct 2014 (Local Time) from OAKN Reporting Station
Clear Clear  
Wind Chill: 81°   Ceiling: Unl
Heat Index: 81°   Visibility: 6mi
Dew Point: 27°   Wind: 0mph
Humidity: 14%   Direction: NA
Pressure: 30.06"   Gusts: NA
Location:  30.21°N, 67.02°E
Report Text: OAKN 211355Z 00000KT 9999 SKC 27/M03 Q1018 RMK A3006 DA5333 BLU
Loading
Personal Weather Stations






























Interactive Weather Map
Tropical Storm Tracking
New forecast layout! Learn more

10-Day Weather Forecast

Advertisements
Track Severe Weather on mobile